sensor_id;sensor_type;location;lat;lon;timestamp;P1;durP1;ratioP1;P2;durP2;ratioP2
60014;SDS011;45867;52.480;6.056;2023-09-30T00:01:15;22.85;;;3.70;;
60014;SDS011;45867;52.480;6.056;2023-09-30T00:03:44;17.40;;;3.67;;
60014;SDS011;45867;52.480;6.056;2023-09-30T00:08:59;14.73;;;3.83;;
60014;SDS011;45867;52.480;6.056;2023-09-30T00:11:25;26.63;;;4.90;;
60014;SDS011;45867;52.480;6.056;2023-09-30T00:13:51;15.60;;;3.75;;
60014;SDS011;45867;52.480;6.056;2023-09-30T00:16:18;21.92;;;3.67;;
60014;SDS011;45867;52.480;6.056;2023-09-30T00:18:54;12.55;;;3.63;;
60014;SDS011;45867;52.480;6.056;2023-09-30T00:21:26;19.25;;;4.20;;
60014;SDS011;45867;52.480;6.056;2023-09-30T00:23:55;18.35;;;4.80;;
60014;SDS011;45867;52.480;6.056;2023-09-30T00:26:26;12.80;;;3.58;;
60014;SDS011;45867;52.480;6.056;2023-09-30T00:28:54;22.42;;;3.65;;
60014;SDS011;45867;52.480;6.056;2023-09-30T00:31:25;18.83;;;3.60;;
60014;SDS011;45867;52.480;6.056;2023-09-30T00:33:54;14.80;;;3.70;;
60014;SDS011;45867;52.480;6.056;2023-09-30T00:36:32;16.58;;;3.83;;
60014;SDS011;45867;52.480;6.056;2023-09-30T00:38:59;20.55;;;3.80;;
60014;SDS011;45867;52.480;6.056;2023-09-30T00:41:28;15.63;;;3.78;;
60014;SDS011;45867;52.480;6.056;2023-09-30T00:44:01;23.85;;;3.25;;
60014;SDS011;45867;52.480;6.056;2023-09-30T00:46:29;17.75;;;4.07;;
60014;SDS011;45867;52.480;6.056;2023-09-30T00:48:58;16.27;;;4.30;;
60014;SDS011;45867;52.480;6.056;2023-09-30T00:51:26;23.08;;;3.92;;
60014;SDS011;45867;52.480;6.056;2023-09-30T00:53:54;15.40;;;4.10;;
60014;SDS011;45867;52.480;6.056;2023-09-30T00:56:25;21.95;;;4.20;;
60014;SDS011;45867;52.480;6.056;2023-09-30T00:58:54;9.77;;;3.50;;
60014;SDS011;45867;52.480;6.056;2023-09-30T01:01:27;19.15;;;4.40;;
60014;SDS011;45867;52.480;6.056;2023-09-30T01:03:56;18.25;;;3.55;;
60014;SDS011;45867;52.480;6.056;2023-09-30T01:06:23;15.27;;;3.83;;
60014;SDS011;45867;52.480;6.056;2023-09-30T01:08:50;16.55;;;3.95;;
60014;SDS011;45867;52.480;6.056;2023-09-30T01:11:22;19.73;;;5.05;;
60014;SDS011;45867;52.480;6.056;2023-09-30T01:14:00;21.83;;;3.80;;
60014;SDS011;45867;52.480;6.056;2023-09-30T01:16:27;25.10;;;4.53;;
60014;SDS011;45867;52.480;6.056;2023-09-30T01:18:56;18.00;;;4.35;;
60014;SDS011;45867;52.480;6.056;2023-09-30T01:21:23;16.67;;;3.70;;
60014;SDS011;45867;52.480;6.056;2023-09-30T01:23:50;15.05;;;3.88;;
60014;SDS011;45867;52.480;6.056;2023-09-30T01:26:19;20.90;;;4.18;;
60014;SDS011;45867;52.480;6.056;2023-09-30T01:28:46;17.40;;;3.95;;
60014;SDS011;45867;52.480;6.056;2023-09-30T01:31:13;15.15;;;3.78;;
60014;SDS011;45867;52.480;6.056;2023-09-30T01:33:58;15.30;;;4.60;;
60014;SDS011;45867;52.480;6.056;2023-09-30T01:36:28;19.70;;;4.25;;
60014;SDS011;45867;52.480;6.056;2023-09-30T01:39:19;18.08;;;4.93;;
60014;SDS011;45867;52.480;6.056;2023-09-30T01:41:44;22.45;;;4.57;;
60014;SDS011;45867;52.480;6.056;2023-09-30T01:44:10;26.30;;;5.40;;
60014;SDS011;45867;52.480;6.056;2023-09-30T01:46:37;15.95;;;4.45;;
60014;SDS011;45867;52.480;6.056;2023-09-30T01:49:12;26.17;;;5.25;;
60014;SDS011;45867;52.480;6.056;2023-09-30T01:51:39;16.50;;;4.70;;
60014;SDS011;45867;52.480;6.056;2023-09-30T01:54:08;14.40;;;4.70;;
60014;SDS011;45867;52.480;6.056;2023-09-30T01:56:35;15.90;;;4.45;;
60014;SDS011;45867;52.480;6.056;2023-09-30T01:59:01;20.00;;;4.95;;
60014;SDS011;45867;52.480;6.056;2023-09-30T02:01:28;14.90;;;4.70;;
60014;SDS011;45867;52.480;6.056;2023-09-30T02:03:55;19.23;;;4.82;;
60014;SDS011;45867;52.480;6.056;2023-09-30T02:06:21;16.85;;;5.00;;
60014;SDS011;45867;52.480;6.056;2023-09-30T02:08:48;17.17;;;5.80;;
60014;SDS011;45867;52.480;6.056;2023-09-30T02:11:17;18.17;;;5.65;;
60014;SDS011;45867;52.480;6.056;2023-09-30T02:13:44;33.25;;;6.20;;
60014;SDS011;45867;52.480;6.056;2023-09-30T02:16:11;16.02;;;5.05;;
60014;SDS011;45867;52.480;6.056;2023-09-30T02:18:39;22.15;;;6.10;;
60014;SDS011;45867;52.480;6.056;2023-09-30T02:21:19;22.50;;;5.80;;
60014;SDS011;45867;52.480;6.056;2023-09-30T02:23:47;19.77;;;5.93;;
60014;SDS011;45867;52.480;6.056;2023-09-30T02:26:14;16.42;;;5.70;;
60014;SDS011;45867;52.480;6.056;2023-09-30T02:28:43;24.98;;;6.20;;
60014;SDS011;45867;52.480;6.056;2023-09-30T02:31:09;14.38;;;5.35;;
60014;SDS011;45867;52.480;6.056;2023-09-30T02:33:38;17.35;;;5.78;;
60014;SDS011;45867;52.480;6.056;2023-09-30T02:36:17;25.85;;;6.13;;
60014;SDS011;45867;52.480;6.056;2023-09-30T02:38:44;17.98;;;5.32;;
60014;SDS011;45867;52.480;6.056;2023-09-30T02:41:10;24.80;;;6.28;;
60014;SDS011;45867;52.480;6.056;2023-09-30T02:43:43;19.98;;;5.57;;
60014;SDS011;45867;52.480;6.056;2023-09-30T02:46:09;17.10;;;6.03;;
60014;SDS011;45867;52.480;6.056;2023-09-30T02:48:39;19.52;;;6.05;;
60014;SDS011;45867;52.480;6.056;2023-09-30T02:51:09;23.95;;;6.95;;
60014;SDS011;45867;52.480;6.056;2023-09-30T02:53:40;21.35;;;5.93;;
60014;SDS011;45867;52.480;6.056;2023-09-30T02:56:07;18.88;;;6.15;;
60014;SDS011;45867;52.480;6.056;2023-09-30T02:58:33;15.27;;;5.97;;
60014;SDS011;45867;52.480;6.056;2023-09-30T03:01:00;17.77;;;6.32;;
60014;SDS011;45867;52.480;6.056;2023-09-30T03:03:27;22.30;;;6.32;;
60014;SDS011;45867;52.480;6.056;2023-09-30T03:05:53;16.55;;;6.35;;
60014;SDS011;45867;52.480;6.056;2023-09-30T03:08:20;19.40;;;6.80;;
60014;SDS011;45867;52.480;6.056;2023-09-30T03:10:49;24.77;;;6.90;;
60014;SDS011;45867;52.480;6.056;2023-09-30T03:13:26;16.15;;;6.00;;
60014;SDS011;45867;52.480;6.056;2023-09-30T03:15:57;17.83;;;6.13;;
60014;SDS011;45867;52.480;6.056;2023-09-30T03:18:23;14.82;;;6.25;;
60014;SDS011;45867;52.480;6.056;2023-09-30T03:20:50;18.23;;;6.07;;
60014;SDS011;45867;52.480;6.056;2023-09-30T03:23:17;12.95;;;5.72;;
60014;SDS011;45867;52.480;6.056;2023-09-30T03:25:43;18.27;;;5.47;;
60014;SDS011;45867;52.480;6.056;2023-09-30T03:28:09;17.92;;;6.55;;
60014;SDS011;45867;52.480;6.056;2023-09-30T03:30:49;13.25;;;5.68;;
60014;SDS011;45867;52.480;6.056;2023-09-30T03:33:25;13.65;;;5.78;;
60014;SDS011;45867;52.480;6.056;2023-09-30T03:36:15;19.67;;;6.25;;
60014;SDS011;45867;52.480;6.056;2023-09-30T03:38:44;26.42;;;6.40;;
60014;SDS011;45867;52.480;6.056;2023-09-30T03:41:10;17.73;;;5.68;;
60014;SDS011;45867;52.480;6.056;2023-09-30T03:43:37;18.02;;;5.00;;
60014;SDS011;45867;52.480;6.056;2023-09-30T03:46:03;15.25;;;5.38;;
60014;SDS011;45867;52.480;6.056;2023-09-30T03:48:31;24.38;;;6.20;;
60014;SDS011;45867;52.480;6.056;2023-09-30T03:50:57;19.65;;;6.30;;
60014;SDS011;45867;52.480;6.056;2023-09-30T03:53:33;16.35;;;5.95;;
60014;SDS011;45867;52.480;6.056;2023-09-30T03:56:06;16.02;;;5.75;;
60014;SDS011;45867;52.480;6.056;2023-09-30T03:58:38;13.38;;;5.00;;
60014;SDS011;45867;52.480;6.056;2023-09-30T04:01:08;23.25;;;6.13;;
60014;SDS011;45867;52.480;6.056;2023-09-30T04:03:36;15.18;;;5.97;;
60014;SDS011;45867;52.480;6.056;2023-09-30T04:06:06;14.35;;;5.50;;
60014;SDS011;45867;52.480;6.056;2023-09-30T04:08:35;15.00;;;5.57;;
60014;SDS011;45867;52.480;6.056;2023-09-30T04:11:17;20.17;;;6.38;;
60014;SDS011;45867;52.480;6.056;2023-09-30T04:14:07;17.10;;;6.15;;
60014;SDS011;45867;52.480;6.056;2023-09-30T04:16:36;15.73;;;6.25;;
60014;SDS011;45867;52.480;6.056;2023-09-30T04:19:03;16.40;;;6.70;;
60014;SDS011;45867;52.480;6.056;2023-09-30T04:21:30;20.25;;;7.10;;
60014;SDS011;45867;52.480;6.056;2023-09-30T04:23:57;17.95;;;6.60;;
60014;SDS011;45867;52.480;6.056;2023-09-30T04:26:27;24.42;;;6.50;;
60014;SDS011;45867;52.480;6.056;2023-09-30T04:28:57;17.55;;;6.53;;
60014;SDS011;45867;52.480;6.056;2023-09-30T04:31:27;21.67;;;7.53;;
60014;SDS011;45867;52.480;6.056;2023-09-30T04:33:58;22.92;;;7.50;;
60014;SDS011;45867;52.480;6.056;2023-09-30T04:36:25;21.30;;;7.78;;
60014;SDS011;45867;52.480;6.056;2023-09-30T04:38:57;20.05;;;7.35;;
60014;SDS011;45867;52.480;6.056;2023-09-30T04:41:25;21.70;;;8.27;;
60014;SDS011;45867;52.480;6.056;2023-09-30T04:43:52;18.13;;;7.50;;
60014;SDS011;45867;52.480;6.056;2023-09-30T04:46:23;22.38;;;7.95;;
60014;SDS011;45867;52.480;6.056;2023-09-30T04:48:49;19.35;;;8.40;;
60014;SDS011;45867;52.480;6.056;2023-09-30T04:51:17;24.63;;;9.10;;
60014;SDS011;45867;52.480;6.056;2023-09-30T04:53:44;20.90;;;8.73;;
60014;SDS011;45867;52.480;6.056;2023-09-30T04:56:14;22.23;;;8.05;;
60014;SDS011;45867;52.480;6.056;2023-09-30T04:58:46;23.83;;;8.65;;
60014;SDS011;45867;52.480;6.056;2023-09-30T05:01:19;26.70;;;9.05;;
60014;SDS011;45867;52.480;6.056;2023-09-30T05:03:48;25.45;;;9.15;;
60014;SDS011;45867;52.480;6.056;2023-09-30T05:06:15;26.13;;;9.38;;
60014;SDS011;45867;52.480;6.056;2023-09-30T05:08:44;31.08;;;9.93;;
60014;SDS011;45867;52.480;6.056;2023-09-30T05:11:10;24.65;;;9.98;;
60014;SDS011;45867;52.480;6.056;2023-09-30T05:13:42;24.60;;;9.60;;
60014;SDS011;45867;52.480;6.056;2023-09-30T05:16:08;34.42;;;9.93;;
60014;SDS011;45867;52.480;6.056;2023-09-30T05:18:36;26.10;;;8.88;;
60014;SDS011;45867;52.480;6.056;2023-09-30T05:21:03;26.70;;;10.57;;
60014;SDS011;45867;52.480;6.056;2023-09-30T05:23:29;27.67;;;10.68;;
60014;SDS011;45867;52.480;6.056;2023-09-30T05:26:10;27.33;;;10.90;;
60014;SDS011;45867;52.480;6.056;2023-09-30T05:28:37;27.42;;;10.80;;
60014;SDS011;45867;52.480;6.056;2023-09-30T05:31:03;26.25;;;10.60;;
60014;SDS011;45867;52.480;6.056;2023-09-30T05:33:39;29.98;;;11.55;;
60014;SDS011;45867;52.480;6.056;2023-09-30T05:36:08;29.05;;;11.27;;
60014;SDS011;45867;52.480;6.056;2023-09-30T05:38:44;30.33;;;11.35;;
60014;SDS011;45867;52.480;6.056;2023-09-30T05:41:14;30.20;;;12.40;;
60014;SDS011;45867;52.480;6.056;2023-09-30T05:43:44;37.58;;;12.45;;
60014;SDS011;45867;52.480;6.056;2023-09-30T05:46:19;28.48;;;11.73;;
60014;SDS011;45867;52.480;6.056;2023-09-30T05:48:50;27.63;;;11.95;;
60014;SDS011;45867;52.480;6.056;2023-09-30T05:51:20;28.45;;;12.05;;
60014;SDS011;45867;52.480;6.056;2023-09-30T05:53:47;29.75;;;12.80;;
60014;SDS011;45867;52.480;6.056;2023-09-30T05:56:14;33.45;;;12.80;;
60014;SDS011;45867;52.480;6.056;2023-09-30T05:58:43;29.95;;;12.90;;
60014;SDS011;45867;52.480;6.056;2023-09-30T06:01:09;32.85;;;12.93;;
60014;SDS011;45867;52.480;6.056;2023-09-30T06:03:39;29.98;;;12.38;;
60014;SDS011;45867;52.480;6.056;2023-09-30T06:06:10;29.80;;;12.45;;
60014;SDS011;45867;52.480;6.056;2023-09-30T06:08:44;41.22;;;13.02;;
60014;SDS011;45867;52.480;6.056;2023-09-30T06:11:20;32.15;;;12.90;;
60014;SDS011;45867;52.480;6.056;2023-09-30T06:13:51;27.90;;;12.85;;
60014;SDS011;45867;52.480;6.056;2023-09-30T06:16:18;26.02;;;12.43;;
60014;SDS011;45867;52.480;6.056;2023-09-30T06:18:49;30.65;;;12.52;;
60014;SDS011;45867;52.480;6.056;2023-09-30T06:21:19;28.58;;;12.75;;
60014;SDS011;45867;52.480;6.056;2023-09-30T06:23:50;25.83;;;12.88;;
60014;SDS011;45867;52.480;6.056;2023-09-30T06:26:20;33.65;;;12.20;;
60014;SDS011;45867;52.480;6.056;2023-09-30T06:28:49;28.05;;;11.52;;
60014;SDS011;45867;52.480;6.056;2023-09-30T06:31:21;35.03;;;12.57;;
60014;SDS011;45867;52.480;6.056;2023-09-30T06:34:07;28.73;;;12.95;;
60014;SDS011;45867;52.480;6.056;2023-09-30T06:36:38;26.73;;;12.32;;
60014;SDS011;45867;52.480;6.056;2023-09-30T06:39:05;37.00;;;13.15;;
60014;SDS011;45867;52.480;6.056;2023-09-30T06:41:31;32.03;;;12.77;;
60014;SDS011;45867;52.480;6.056;2023-09-30T06:43:58;26.30;;;12.57;;
60014;SDS011;45867;52.480;6.056;2023-09-30T06:46:24;27.33;;;12.30;;
60014;SDS011;45867;52.480;6.056;2023-09-30T06:48:57;25.85;;;12.23;;
60014;SDS011;45867;52.480;6.056;2023-09-30T06:51:30;26.48;;;11.68;;
60014;SDS011;45867;52.480;6.056;2023-09-30T06:54:00;30.83;;;12.05;;
60014;SDS011;45867;52.480;6.056;2023-09-30T06:56:32;38.50;;;12.02;;
60014;SDS011;45867;52.480;6.056;2023-09-30T06:59:04;26.00;;;11.18;;
60014;SDS011;45867;52.480;6.056;2023-09-30T07:01:58;26.67;;;11.32;;
60014;SDS011;45867;52.480;6.056;2023-09-30T07:04:25;29.15;;;11.00;;
60014;SDS011;45867;52.480;6.056;2023-09-30T07:06:52;30.77;;;11.43;;
60014;SDS011;45867;52.480;6.056;2023-09-30T07:09:29;22.67;;;11.18;;
60014;SDS011;45867;52.480;6.056;2023-09-30T07:12:02;23.10;;;9.68;;
60014;SDS011;45867;52.480;6.056;2023-09-30T07:14:38;23.92;;;9.82;;
60014;SDS011;45867;52.480;6.056;2023-09-30T07:17:05;23.85;;;9.20;;
60014;SDS011;45867;52.480;6.056;2023-09-30T07:19:34;20.13;;;8.50;;
60014;SDS011;45867;52.480;6.056;2023-09-30T07:22:02;18.10;;;8.20;;
60014;SDS011;45867;52.480;6.056;2023-09-30T07:24:32;25.17;;;8.65;;
60014;SDS011;45867;52.480;6.056;2023-09-30T07:27:03;19.60;;;8.48;;
60014;SDS011;45867;52.480;6.056;2023-09-30T07:29:47;25.20;;;10.55;;
60014;SDS011;45867;52.480;6.056;2023-09-30T07:32:19;21.50;;;9.55;;
60014;SDS011;45867;52.480;6.056;2023-09-30T07:34:47;21.67;;;10.75;;
60014;SDS011;45867;52.480;6.056;2023-09-30T07:37:19;24.63;;;10.48;;
60014;SDS011;45867;52.480;6.056;2023-09-30T07:39:46;22.23;;;9.65;;
60014;SDS011;45867;52.480;6.056;2023-09-30T07:42:29;28.35;;;10.02;;
60014;SDS011;45867;52.480;6.056;2023-09-30T07:44:59;26.42;;;10.23;;
60014;SDS011;45867;52.480;6.056;2023-09-30T07:47:25;22.50;;;9.55;;
60014;SDS011;45867;52.480;6.056;2023-09-30T07:50:01;22.60;;;9.65;;
60014;SDS011;45867;52.480;6.056;2023-09-30T07:52:30;23.73;;;9.35;;
60014;SDS011;45867;52.480;6.056;2023-09-30T07:55:06;19.25;;;8.23;;
60014;SDS011;45867;52.480;6.056;2023-09-30T07:57:43;21.52;;;8.45;;
60014;SDS011;45867;52.480;6.056;2023-09-30T08:00:10;23.13;;;9.13;;
60014;SDS011;45867;52.480;6.056;2023-09-30T08:02:37;25.20;;;8.70;;
60014;SDS011;45867;52.480;6.056;2023-09-30T08:05:05;15.55;;;7.47;;
60014;SDS011;45867;52.480;6.056;2023-09-30T08:07:33;22.05;;;7.93;;
60014;SDS011;45867;52.480;6.056;2023-09-30T08:10:05;18.50;;;7.47;;
60014;SDS011;45867;52.480;6.056;2023-09-30T08:12:35;15.02;;;6.78;;
60014;SDS011;45867;52.480;6.056;2023-09-30T08:15:06;24.45;;;7.15;;
60014;SDS011;45867;52.480;6.056;2023-09-30T08:17:37;19.30;;;7.07;;
60014;SDS011;45867;52.480;6.056;2023-09-30T08:20:04;18.13;;;6.60;;
60014;SDS011;45867;52.480;6.056;2023-09-30T08:22:40;17.52;;;6.53;;
60014;SDS011;45867;52.480;6.056;2023-09-30T08:25:07;15.52;;;6.40;;
60014;SDS011;45867;52.480;6.056;2023-09-30T08:27:37;18.25;;;7.07;;
60014;SDS011;45867;52.480;6.056;2023-09-30T08:30:04;17.98;;;6.35;;
60014;SDS011;45867;52.480;6.056;2023-09-30T08:32:44;17.02;;;6.10;;
60014;SDS011;45867;52.480;6.056;2023-09-30T08:35:10;17.48;;;6.25;;
60014;SDS011;45867;52.480;6.056;2023-09-30T08:37:37;13.18;;;5.70;;
60014;SDS011;45867;52.480;6.056;2023-09-30T08:40:04;12.15;;;5.32;;
60014;SDS011;45867;52.480;6.056;2023-09-30T08:42:32;15.52;;;5.53;;
60014;SDS011;45867;52.480;6.056;2023-09-30T08:45:00;17.50;;;5.65;;
60014;SDS011;45867;52.480;6.056;2023-09-30T08:47:40;13.23;;;4.85;;
60014;SDS011;45867;52.480;6.056;2023-09-30T08:50:11;13.10;;;5.13;;
60014;SDS011;45867;52.480;6.056;2023-09-30T08:52:38;12.70;;;4.85;;
60014;SDS011;45867;52.480;6.056;2023-09-30T08:55:10;14.30;;;4.70;;
60014;SDS011;45867;52.480;6.056;2023-09-30T08:57:41;15.88;;;5.07;;
60014;SDS011;45867;52.480;6.056;2023-09-30T09:00:09;15.82;;;4.88;;
60014;SDS011;45867;52.480;6.056;2023-09-30T09:02:45;11.20;;;4.88;;
60014;SDS011;45867;52.480;6.056;2023-09-30T09:05:15;15.73;;;5.22;;
60014;SDS011;45867;52.480;6.056;2023-09-30T09:07:43;19.50;;;4.75;;
60014;SDS011;45867;52.480;6.056;2023-09-30T09:10:13;12.10;;;5.30;;
60014;SDS011;45867;52.480;6.056;2023-09-30T09:12:41;11.27;;;4.95;;
60014;SDS011;45867;52.480;6.056;2023-09-30T09:15:19;10.20;;;4.68;;
60014;SDS011;45867;52.480;6.056;2023-09-30T09:17:47;10.65;;;3.90;;
60014;SDS011;45867;52.480;6.056;2023-09-30T09:20:20;13.15;;;3.65;;
60014;SDS011;45867;52.480;6.056;2023-09-30T09:22:53;9.68;;;3.40;;
60014;SDS011;45867;52.480;6.056;2023-09-30T09:25:21;8.82;;;3.03;;
60014;SDS011;45867;52.480;6.056;2023-09-30T09:27:50;8.52;;;3.38;;
60014;SDS011;45867;52.480;6.056;2023-09-30T09:30:24;13.20;;;3.47;;
60014;SDS011;45867;52.480;6.056;2023-09-30T09:33:09;15.82;;;3.55;;
60014;SDS011;45867;52.480;6.056;2023-09-30T09:35:35;11.25;;;3.88;;
60014;SDS011;45867;52.480;6.056;2023-09-30T09:38:19;13.77;;;3.17;;
60014;SDS011;45867;52.480;6.056;2023-09-30T09:40:45;12.48;;;3.28;;
60014;SDS011;45867;52.480;6.056;2023-09-30T09:43:17;11.15;;;3.22;;
60014;SDS011;45867;52.480;6.056;2023-09-30T09:45:44;7.13;;;2.80;;
60014;SDS011;45867;52.480;6.056;2023-09-30T09:50:48;9.77;;;3.45;;
60014;SDS011;45867;52.480;6.056;2023-09-30T09:53:17;11.93;;;3.65;;
60014;SDS011;45867;52.480;6.056;2023-09-30T09:55:49;9.80;;;3.20;;
60014;SDS011;45867;52.480;6.056;2023-09-30T09:58:19;16.88;;;3.53;;
60014;SDS011;45867;52.480;6.056;2023-09-30T10:00:49;13.00;;;3.83;;
60014;SDS011;45867;52.480;6.056;2023-09-30T10:03:15;13.65;;;3.50;;
60014;SDS011;45867;52.480;6.056;2023-09-30T10:05:42;8.50;;;3.15;;
60014;SDS011;45867;52.480;6.056;2023-09-30T10:08:12;13.07;;;3.25;;
60014;SDS011;45867;52.480;6.056;2023-09-30T10:10:45;10.32;;;3.22;;
60014;SDS011;45867;52.480;6.056;2023-09-30T10:19:22;10.68;;;3.60;;
60014;SDS011;45867;52.480;6.056;2023-09-30T10:25:00;12.85;;;4.05;;
60014;SDS011;45867;52.480;6.056;2023-09-30T10:27:30;16.45;;;4.00;;
60014;SDS011;45867;52.480;6.056;2023-09-30T10:29:57;12.00;;;3.80;;
60014;SDS011;45867;52.480;6.056;2023-09-30T10:35:41;15.07;;;3.42;;
60014;SDS011;45867;52.480;6.056;2023-09-30T10:40:49;14.57;;;3.60;;
60014;SDS011;45867;52.480;6.056;2023-09-30T10:48:53;13.45;;;4.10;;
60014;SDS011;45867;52.480;6.056;2023-09-30T10:51:26;10.25;;;3.38;;
60014;SDS011;45867;52.480;6.056;2023-09-30T10:54:01;10.95;;;3.53;;
60014;SDS011;45867;52.480;6.056;2023-09-30T10:56:33;9.73;;;2.75;;
60014;SDS011;45867;52.480;6.056;2023-09-30T10:59:00;12.18;;;2.97;;
60014;SDS011;45867;52.480;6.056;2023-09-30T11:01:31;11.18;;;2.92;;
60014;SDS011;45867;52.480;6.056;2023-09-30T11:04:02;11.30;;;2.90;;
60014;SDS011;45867;52.480;6.056;2023-09-30T11:06:30;8.57;;;2.92;;
60014;SDS011;45867;52.480;6.056;2023-09-30T11:08:57;10.90;;;2.83;;
60014;SDS011;45867;52.480;6.056;2023-09-30T11:14:27;9.35;;;3.00;;
60014;SDS011;45867;52.480;6.056;2023-09-30T11:16:59;8.48;;;2.70;;
60014;SDS011;45867;52.480;6.056;2023-09-30T11:19:27;9.95;;;2.90;;
60014;SDS011;45867;52.480;6.056;2023-09-30T11:22:05;11.60;;;3.13;;
60014;SDS011;45867;52.480;6.056;2023-09-30T11:24:36;10.32;;;2.97;;
60014;SDS011;45867;52.480;6.056;2023-09-30T11:27:05;15.77;;;3.53;;
60014;SDS011;45867;52.480;6.056;2023-09-30T11:29:36;11.00;;;3.35;;
60014;SDS011;45867;52.480;6.056;2023-09-30T11:32:23;9.57;;;3.30;;
60014;SDS011;45867;52.480;6.056;2023-09-30T11:34:52;10.25;;;3.10;;
60014;SDS011;45867;52.480;6.056;2023-09-30T11:37:19;8.27;;;2.67;;
60014;SDS011;45867;52.480;6.056;2023-09-30T11:39:49;10.27;;;2.67;;
60014;SDS011;45867;52.480;6.056;2023-09-30T11:42:18;8.57;;;2.70;;
60014;SDS011;45867;52.480;6.056;2023-09-30T11:44:49;12.35;;;2.80;;
60014;SDS011;45867;52.480;6.056;2023-09-30T11:47:17;11.25;;;2.55;;
60014;SDS011;45867;52.480;6.056;2023-09-30T11:49:56;9.80;;;2.20;;
60014;SDS011;45867;52.480;6.056;2023-09-30T11:52:26;8.63;;;2.10;;
60014;SDS011;45867;52.480;6.056;2023-09-30T11:54:53;10.48;;;2.78;;
60014;SDS011;45867;52.480;6.056;2023-09-30T11:57:20;11.38;;;3.20;;
60014;SDS011;45867;52.480;6.056;2023-09-30T11:59:50;8.05;;;2.25;;
60014;SDS011;45867;52.480;6.056;2023-09-30T12:02:28;7.80;;;2.38;;
60014;SDS011;45867;52.480;6.056;2023-09-30T12:04:54;8.55;;;2.35;;
60014;SDS011;45867;52.480;6.056;2023-09-30T12:07:21;9.25;;;2.33;;
60014;SDS011;45867;52.480;6.056;2023-09-30T12:09:49;9.10;;;2.60;;
60014;SDS011;45867;52.480;6.056;2023-09-30T12:12:15;8.45;;;2.50;;
60014;SDS011;45867;52.480;6.056;2023-09-30T12:14:45;9.35;;;2.88;;
60014;SDS011;45867;52.480;6.056;2023-09-30T12:17:18;11.23;;;3.10;;
60014;SDS011;45867;52.480;6.056;2023-09-30T12:19:44;10.38;;;3.20;;
60014;SDS011;45867;52.480;6.056;2023-09-30T12:22:12;11.57;;;2.60;;
60014;SDS011;45867;52.480;6.056;2023-09-30T12:24:38;11.52;;;3.05;;
60014;SDS011;45867;52.480;6.056;2023-09-30T12:27:07;12.35;;;2.95;;
60014;SDS011;45867;52.480;6.056;2023-09-30T12:29:37;6.60;;;3.10;;
60014;SDS011;45867;52.480;6.056;2023-09-30T12:32:21;9.57;;;2.70;;
60014;SDS011;45867;52.480;6.056;2023-09-30T12:34:48;8.13;;;2.80;;
60014;SDS011;45867;52.480;6.056;2023-09-30T12:37:14;8.38;;;2.80;;
60014;SDS011;45867;52.480;6.056;2023-09-30T12:39:46;10.68;;;2.72;;
60014;SDS011;45867;52.480;6.056;2023-09-30T12:42:13;8.60;;;2.80;;
60014;SDS011;45867;52.480;6.056;2023-09-30T12:44:40;11.98;;;2.78;;
60014;SDS011;45867;52.480;6.056;2023-09-30T12:47:06;13.73;;;2.80;;
60014;SDS011;45867;52.480;6.056;2023-09-30T12:49:45;9.63;;;2.83;;
60014;SDS011;45867;52.480;6.056;2023-09-30T12:52:15;9.63;;;2.95;;
60014;SDS011;45867;52.480;6.056;2023-09-30T12:54:42;12.20;;;2.83;;
60014;SDS011;45867;52.480;6.056;2023-09-30T12:57:08;11.25;;;3.50;;
60014;SDS011;45867;52.480;6.056;2023-09-30T12:59:36;8.68;;;3.20;;
60014;SDS011;45867;52.480;6.056;2023-09-30T13:02:06;12.07;;;3.00;;
60014;SDS011;45867;52.480;6.056;2023-09-30T13:04:32;11.98;;;3.20;;
60014;SDS011;45867;52.480;6.056;2023-09-30T13:07:08;11.02;;;3.13;;
60014;SDS011;45867;52.480;6.056;2023-09-30T13:09:38;12.75;;;3.15;;
60014;SDS011;45867;52.480;6.056;2023-09-30T13:12:05;12.95;;;3.17;;
60014;SDS011;45867;52.480;6.056;2023-09-30T13:14:37;9.85;;;3.25;;
60014;SDS011;45867;52.480;6.056;2023-09-30T13:17:05;8.55;;;3.25;;
60014;SDS011;45867;52.480;6.056;2023-09-30T13:19:35;7.43;;;3.33;;
60014;SDS011;45867;52.480;6.056;2023-09-30T13:22:02;10.70;;;3.28;;
60014;SDS011;45867;52.480;6.056;2023-09-30T13:24:44;15.35;;;3.67;;
60014;SDS011;45867;52.480;6.056;2023-09-30T13:27:12;11.07;;;3.25;;
60014;SDS011;45867;52.480;6.056;2023-09-30T13:29:39;9.68;;;3.22;;
60014;SDS011;45867;52.480;6.056;2023-09-30T13:32:09;9.52;;;3.60;;
60014;SDS011;45867;52.480;6.056;2023-09-30T13:34:39;13.45;;;3.00;;
60014;SDS011;45867;52.480;6.056;2023-09-30T13:37:05;15.88;;;2.92;;
60014;SDS011;45867;52.480;6.056;2023-09-30T13:39:32;13.00;;;3.13;;
60014;SDS011;45867;52.480;6.056;2023-09-30T13:41:59;8.05;;;2.80;;
60014;SDS011;45867;52.480;6.056;2023-09-30T13:44:26;12.80;;;3.42;;
60014;SDS011;45867;52.480;6.056;2023-09-30T13:46:55;13.55;;;3.50;;
60014;SDS011;45867;52.480;6.056;2023-09-30T13:49:30;7.95;;;3.30;;
60014;SDS011;45867;52.480;6.056;2023-09-30T13:51:57;10.15;;;3.17;;
60014;SDS011;45867;52.480;6.056;2023-09-30T13:54:24;12.18;;;3.08;;
60014;SDS011;45867;52.480;6.056;2023-09-30T13:56:50;14.50;;;3.28;;
60014;SDS011;45867;52.480;6.056;2023-09-30T13:59:17;15.18;;;3.25;;
60014;SDS011;45867;52.480;6.056;2023-09-30T14:01:43;14.90;;;3.25;;
60014;SDS011;45867;52.480;6.056;2023-09-30T14:04:28;10.98;;;3.60;;
60014;SDS011;45867;52.480;6.056;2023-09-30T14:06:56;9.18;;;2.67;;
60014;SDS011;45867;52.480;6.056;2023-09-30T14:09:23;11.55;;;3.22;;
60014;SDS011;45867;52.480;6.056;2023-09-30T14:12:00;16.33;;;3.67;;
60014;SDS011;45867;52.480;6.056;2023-09-30T14:14:33;8.45;;;2.92;;
60014;SDS011;45867;52.480;6.056;2023-09-30T14:17:00;11.18;;;3.53;;
60014;SDS011;45867;52.480;6.056;2023-09-30T14:19:30;12.57;;;3.63;;
60014;SDS011;45867;52.480;6.056;2023-09-30T14:22:03;9.57;;;2.83;;
60014;SDS011;45867;52.480;6.056;2023-09-30T14:24:31;11.80;;;3.00;;
60014;SDS011;45867;52.480;6.056;2023-09-30T14:27:05;13.00;;;2.85;;
60014;SDS011;45867;52.480;6.056;2023-09-30T14:29:36;12.65;;;3.35;;
60014;SDS011;45867;52.480;6.056;2023-09-30T14:32:08;17.33;;;3.65;;
60014;SDS011;45867;52.480;6.056;2023-09-30T14:34:39;16.23;;;3.60;;
60014;SDS011;45867;52.480;6.056;2023-09-30T14:37:33;9.88;;;3.22;;
60014;SDS011;45867;52.480;6.056;2023-09-30T14:40:02;12.45;;;2.80;;
60014;SDS011;45867;52.480;6.056;2023-09-30T14:42:39;16.20;;;3.80;;
60014;SDS011;45867;52.480;6.056;2023-09-30T14:45:07;11.25;;;3.13;;
60014;SDS011;45867;52.480;6.056;2023-09-30T14:47:37;10.57;;;3.25;;
60014;SDS011;45867;52.480;6.056;2023-09-30T14:50:06;13.95;;;3.58;;
60014;SDS011;45867;52.480;6.056;2023-09-30T14:52:39;11.25;;;2.90;;
60014;SDS011;45867;52.480;6.056;2023-09-30T14:55:06;11.85;;;3.05;;
60014;SDS011;45867;52.480;6.056;2023-09-30T14:57:32;14.45;;;3.45;;
60014;SDS011;45867;52.480;6.056;2023-09-30T14:59:59;10.63;;;3.38;;
60014;SDS011;45867;52.480;6.056;2023-09-30T15:02:26;11.45;;;2.97;;
60014;SDS011;45867;52.480;6.056;2023-09-30T15:04:52;12.85;;;3.45;;
60014;SDS011;45867;52.480;6.056;2023-09-30T15:07:19;15.38;;;3.70;;
60014;SDS011;45867;52.480;6.056;2023-09-30T15:09:45;10.63;;;3.45;;
60014;SDS011;45867;52.480;6.056;2023-09-30T15:12:14;13.60;;;3.47;;
60014;SDS011;45867;52.480;6.056;2023-09-30T15:14:43;9.88;;;3.20;;
60014;SDS011;45867;52.480;6.056;2023-09-30T15:17:09;11.35;;;3.45;;
60014;SDS011;45867;52.480;6.056;2023-09-30T15:19:36;15.35;;;3.63;;